Time;durP1;ratioP1;P1;durP2;ratioP2;P2;SDS_P1;SDS_P2;PMS_P1;PMS_P2;Temp;Humidity;BMP_temperature;BMP_pressure;BME280_temperature;BME280_humidity;BME280_pressure;Samples;Min_cycle;Max_cycle;Signal;HPM_P1;HPM_P2
2023/05/30 00:01:48;;;;;;;6.15;3.67;;;15.20;99.90;;;;;;4973061;28;20274;-64
2023/05/30 00:04:14;;;;;;;7.57;3.55;;;15.20;99.90;;;;;;4970693;28;20522;-64
2023/05/30 00:06:40;;;;;;;4.43;4.03;;;15.20;99.90;;;;;;4972413;28;20129;-64
2023/05/30 00:09:05;;;;;;;5.95;3.60;;;15.20;99.90;;;;;;4976433;28;20050;-64
2023/05/30 00:11:31;;;;;;;5.15;3.85;;;15.20;99.90;;;;;;4970361;28;20503;-64
2023/05/30 00:13:58;;;;;;;5.22;3.40;;;15.30;99.90;;;;;;4972855;28;20034;-64
2023/05/30 00:16:23;;;;;;;9.65;4.00;;;15.30;99.90;;;;;;4972390;28;20467;-64
2023/05/30 00:18:52;;;;;;;5.25;3.75;;;15.30;99.90;;;;;;4972321;28;20050;-64
2023/05/30 00:21:18;;;;;;;5.72;3.90;;;15.20;99.90;;;;;;4966144;28;20042;-64
2023/05/30 00:23:45;;;;;;;6.18;3.72;;;15.10;99.90;;;;;;4972460;28;20058;-65
2023/05/30 00:26:12;;;;;;;5.28;4.10;;;15.10;99.90;;;;;;4975227;28;20027;-65
2023/05/30 00:28:38;;;;;;;5.93;4.30;;;15.00;99.90;;;;;;4976662;28;20382;-65
2023/05/30 00:31:05;;;;;;;5.50;3.85;;;15.10;99.90;;;;;;4970393;28;20038;-65
2023/05/30 00:33:31;;;;;;;6.30;4.18;;;15.10;99.90;;;;;;4974065;28;20046;-77
2023/05/30 00:35:57;;;;;;;8.07;4.22;;;15.10;99.90;;;;;;4974702;28;20113;-77
2023/05/30 00:38:23;;;;;;;6.13;4.10;;;15.10;99.90;;;;;;4974254;28;20040;-78
2023/05/30 00:40:48;;;;;;;5.55;4.07;;;15.10;99.90;;;;;;4974975;28;20038;-79
2023/05/30 00:43:15;;;;;;;4.28;3.88;;;15.10;99.90;;;;;;4975134;28;20243;-79
2023/05/30 00:45:41;;;;;;;4.32;3.38;;;15.10;99.90;;;;;;4969452;28;20038;-78
2023/05/30 00:48:07;;;;;;;4.22;3.28;;;15.00;99.90;;;;;;4973927;28;20060;-79
2023/05/30 00:50:33;;;;;;;5.88;3.67;;;14.80;99.90;;;;;;4970656;28;20173;-64
2023/05/30 00:53:00;;;;;;;4.05;3.50;;;14.80;99.90;;;;;;4971782;28;20049;-77
2023/05/30 00:55:27;;;;;;;5.78;4.20;;;14.80;99.90;;;;;;4970481;28;20061;-77
2023/05/30 00:57:53;;;;;;;5.82;3.58;;;14.70;99.90;;;;;;4969779;28;20494;-76
2023/05/30 01:00:23;;;;;;;5.60;3.97;;;14.70;99.90;;;;;;4975947;28;20112;-75
2023/05/30 01:02:49;;;;;;;5.32;3.65;;;14.60;99.90;;;;;;4952249;28;20065;-75
2023/05/30 01:05:15;;;;;;;6.32;3.20;;;14.60;99.90;;;;;;4974248;28;20039;-76
2023/05/30 01:07:48;;;;;;;4.30;3.75;;;14.60;99.90;;;;;;4973434;28;20394;-75
2023/05/30 01:10:15;;;;;;;4.97;3.45;;;14.60;99.90;;;;;;4967895;28;20038;-74
2023/05/30 01:13:11;;;;;;;6.50;3.80;;;14.60;99.90;;;;;;4973449;28;20535;-76
2023/05/30 01:16:03;;;;;;;4.97;3.92;;;14.60;99.90;;;;;;4969265;28;20750;-76
2023/05/30 01:18:34;;;;;;;;;;;14.60;99.90;;;;;;4973324;28;20054;-76
2023/05/30 01:21:10;;;;;;;4.30;3.30;;;14.60;99.90;;;;;;4962874;28;20000;-76
2023/05/30 01:23:39;;;;;;;5.20;3.63;;;14.70;99.90;;;;;;4971519;28;20537;-76
2023/05/30 01:26:11;;;;;;;4.50;3.78;;;14.70;99.90;;;;;;4975366;28;20045;-76
2023/05/30 01:28:37;;;;;;;4.30;3.67;;;14.60;99.90;;;;;;4971384;28;20041;-75
2023/05/30 01:31:04;;;;;;;4.68;3.60;;;14.70;99.90;;;;;;4968552;28;20523;-74
2023/05/30 01:33:31;;;;;;;4.72;4.13;;;14.70;99.90;;;;;;4970298;28;20098;-73
2023/05/30 01:35:57;;;;;;;6.47;4.05;;;14.60;99.90;;;;;;4965152;28;20625;-72
2023/05/30 01:38:22;;;;;;;5.30;3.72;;;14.60;99.90;;;;;;4968271;28;20749;-74
2023/05/30 01:40:57;;;;;;;5.75;4.00;;;14.50;99.90;;;;;;4968369;28;20145;-74
2023/05/30 01:43:48;;;;;;;6.65;3.80;;;14.40;99.90;;;;;;4969746;28;20055;-74
2023/05/30 01:46:33;;;;;;;4.32;3.72;;;14.30;99.90;;;;;;4967557;28;21136;-65
2023/05/30 01:49:09;;;;;;;5.57;3.83;;;14.20;99.90;;;;;;4964014;28;20034;-65
2023/05/30 01:51:52;;;;;;;5.35;3.90;;;14.20;99.90;;;;;;4970829;28;20061;-65
2023/05/30 01:54:19;;;;;;;4.70;4.07;;;14.30;99.90;;;;;;4965990;28;20034;-65
2023/05/30 01:56:48;;;;;;;10.15;4.65;;;14.30;99.90;;;;;;4969721;28;20538;-65
2023/05/30 01:59:17;;;;;;;5.32;3.70;;;14.30;99.90;;;;;;4970147;28;20127;-65
2023/05/30 02:01:43;;;;;;;5.13;3.28;;;14.30;99.90;;;;;;4970191;28;20474;-65
2023/05/30 02:04:09;;;;;;;3.83;3.50;;;14.20;99.90;;;;;;4967259;28;20283;-65
2023/05/30 02:06:36;;;;;;;6.45;4.32;;;14.20;99.90;;;;;;4974910;28;20041;-65
2023/05/30 02:09:03;;;;;;;5.40;3.72;;;14.30;99.90;;;;;;4970399;28;20049;-65
2023/05/30 02:11:29;;;;;;;6.72;3.53;;;14.30;99.90;;;;;;4978662;28;20029;-65
2023/05/30 02:13:57;;;;;;;5.85;4.00;;;14.30;99.90;;;;;;4972965;28;20038;-64
2023/05/30 02:16:24;;;;;;;6.10;3.83;;;14.20;99.90;;;;;;4970807;28;20041;-65
2023/05/30 02:18:50;;;;;;;4.30;3.90;;;14.20;99.90;;;;;;4967123;28;20128;-65
2023/05/30 02:21:15;;;;;;;3.65;3.35;;;14.20;99.90;;;;;;4962060;28;20042;-65
2023/05/30 02:23:41;;;;;;;5.15;3.88;;;14.20;99.90;;;;;;4966815;28;20054;-65
2023/05/30 02:26:07;;;;;;;4.00;3.60;;;14.20;99.90;;;;;;4968424;28;20101;-74
2023/05/30 02:28:33;;;;;;;6.22;3.72;;;14.10;99.90;;;;;;4967604;28;20049;-74
2023/05/30 02:30:59;;;;;;;5.07;3.95;;;14.10;99.90;;;;;;4966296;28;20031;-75
2023/05/30 02:33:25;;;;;;;7.35;3.80;;;14.10;99.90;;;;;;4964424;28;20049;-74
2023/05/30 02:35:51;;;;;;;5.03;4.00;;;14.00;99.90;;;;;;4967394;28;20399;-74
2023/05/30 02:38:16;;;;;;;5.60;4.00;;;14.00;99.90;;;;;;4951273;28;20778;-74
2023/05/30 02:40:42;;;;;;;5.68;3.63;;;14.00;99.90;;;;;;4963398;28;20038;-74
2023/05/30 02:43:07;;;;;;;4.30;3.80;;;13.90;99.90;;;;;;4965235;28;20061;-74
2023/05/30 02:45:33;;;;;;;6.95;3.72;;;13.80;99.90;;;;;;4970751;28;20101;-73
2023/05/30 02:47:59;;;;;;;5.10;4.13;;;13.80;99.90;;;;;;4970004;28;20042;-74
2023/05/30 02:50:24;;;;;;;6.35;3.88;;;13.80;99.90;;;;;;4967941;28;20054;-74
2023/05/30 02:52:50;;;;;;;6.10;4.03;;;13.80;99.90;;;;;;4965681;28;20864;-74
2023/05/30 02:55:15;;;;;;;5.70;3.53;;;13.80;99.90;;;;;;4951280;28;20049;-73
2023/05/30 02:57:42;;;;;;;6.93;4.13;;;13.80;99.90;;;;;;4968299;28;20050;-74
2023/05/30 03:00:10;;;;;;;8.63;4.40;;;13.80;99.90;;;;;;4966454;28;20137;-74
2023/05/30 03:02:35;;;;;;;6.60;4.22;;;13.80;99.90;;;;;;4969900;28;20062;-75
2023/05/30 03:05:03;;;;;;;5.20;4.05;;;13.80;99.90;;;;;;4960739;28;20038;-74
2023/05/30 03:07:29;;;;;;;5.80;4.53;;;13.80;99.90;;;;;;4973486;28;20087;-75
2023/05/30 03:09:56;;;;;;;5.63;4.18;;;13.80;99.90;;;;;;4974350;28;20034;-74
2023/05/30 03:12:22;;;;;;;8.88;3.88;;;13.90;99.90;;;;;;4974591;28;20112;-74
2023/05/30 03:14:48;;;;;;;5.22;4.38;;;13.90;99.90;;;;;;4971056;28;20046;-74
2023/05/30 03:17:15;;;;;;;4.85;3.50;;;13.90;99.90;;;;;;4961271;28;20554;-74
2023/05/30 03:19:41;;;;;;;5.70;3.75;;;13.90;99.90;;;;;;4969402;28;20054;-74
2023/05/30 03:22:07;;;;;;;4.70;4.20;;;13.90;99.90;;;;;;4971538;28;20038;-65
2023/05/30 03:24:34;;;;;;;5.63;3.67;;;13.90;99.90;;;;;;4975075;28;20062;-65
2023/05/30 03:27:00;;;;;;;5.05;3.88;;;13.90;99.90;;;;;;4974425;28;20065;-65
2023/05/30 03:29:27;;;;;;;6.03;3.97;;;13.90;99.90;;;;;;4967475;28;20638;-65
2023/05/30 03:31:53;;;;;;;5.22;3.67;;;13.90;99.90;;;;;;4968580;28;20069;-65
2023/05/30 03:34:19;;;;;;;6.65;3.40;;;14.00;99.90;;;;;;4969660;28;20054;-65
2023/05/30 03:36:45;;;;;;;7.25;3.55;;;13.90;99.90;;;;;;4956312;28;20046;-65
2023/05/30 03:39:12;;;;;;;6.05;3.90;;;13.90;99.90;;;;;;4968753;28;20026;-65
2023/05/30 03:41:39;;;;;;;6.40;3.45;;;13.90;99.90;;;;;;4971896;28;20034;-65
2023/05/30 03:44:04;;;;;;;5.05;3.90;;;13.90;99.90;;;;;;4974696;28;20169;-65
2023/05/30 03:46:31;;;;;;;6.25;3.72;;;14.00;99.90;;;;;;4964007;28;20030;-65
2023/05/30 03:48:57;;;;;;;4.85;4.03;;;14.10;99.90;;;;;;4972043;28;20033;-65
2023/05/30 03:51:23;;;;;;;12.85;4.22;;;14.20;99.90;;;;;;4968931;28;20474;-65
2023/05/30 03:53:49;;;;;;;5.60;3.90;;;14.30;99.90;;;;;;4969671;28;20519;-65
2023/05/30 03:56:15;;;;;;;5.28;4.35;;;14.30;99.90;;;;;;4967934;28;20038;-65
2023/05/30 03:58:40;;;;;;;8.55;4.38;;;14.30;99.90;;;;;;4972089;28;20065;-65
2023/05/30 04:01:06;;;;;;;6.57;4.22;;;14.30;99.90;;;;;;4969972;28;20541;-74
2023/05/30 04:03:32;;;;;;;6.50;3.90;;;14.30;99.90;;;;;;4965658;28;20164;-64
2023/05/30 04:05:58;;;;;;;6.65;4.38;;;14.40;99.90;;;;;;4966645;28;20109;-65
2023/05/30 04:08:25;;;;;;;10.02;4.60;;;14.50;99.90;;;;;;4974628;28;20042;-65
2023/05/30 04:10:51;;;;;;;4.70;3.70;;;14.60;99.90;;;;;;4971479;28;20075;-64
2023/05/30 04:13:16;;;;;;;4.75;3.80;;;14.60;99.90;;;;;;4972717;28;20122;-64
2023/05/30 04:15:42;;;;;;;5.22;3.88;;;14.50;99.90;;;;;;4970331;28;20030;-65
2023/05/30 04:18:07;;;;;;;6.90;4.00;;;14.40;99.90;;;;;;4956241;28;20081;-65
2023/05/30 04:20:33;;;;;;;7.05;3.97;;;14.40;99.90;;;;;;4968530;28;20112;-65
2023/05/30 04:22:59;;;;;;;5.57;4.00;;;14.30;99.90;;;;;;4970560;28;20050;-65
2023/05/30 04:25:25;;;;;;;6.72;4.60;;;14.30;99.90;;;;;;4965055;28;20022;-65
2023/05/30 04:27:50;;;;;;;5.10;3.70;;;14.30;99.90;;;;;;4971945;28;20068;-65
2023/05/30 04:30:17;;;;;;;8.13;3.88;;;14.40;99.90;;;;;;4973211;28;20046;-65
2023/05/30 04:32:44;;;;;;;5.55;4.32;;;14.60;99.90;;;;;;4969345;28;20497;-65
2023/05/30 04:35:13;;;;;;;5.63;4.38;;;14.70;99.90;;;;;;4965178;28;20526;-65
2023/05/30 04:37:43;;;;;;;5.13;4.55;;;14.90;99.90;;;;;;4965779;28;20048;-65
2023/05/30 04:40:12;;;;;;;6.65;4.75;;;15.10;99.90;;;;;;4966495;28;20047;-65
2023/05/30 04:42:41;;;;;;;5.30;4.30;;;15.20;99.90;;;;;;4968022;28;20050;-65
2023/05/30 04:45:16;;;;;;;12.43;5.50;;;15.40;99.90;;;;;;4971622;28;20041;-66
2023/05/30 04:47:45;;;;;;;8.40;5.63;;;15.50;99.90;;;;;;4973713;28;20039;-65
2023/05/30 04:50:12;;;;;;;9.75;5.50;;;15.70;99.90;;;;;;4970285;28;20370;-65
2023/05/30 04:52:37;;;;;;;6.05;4.35;;;15.90;99.90;;;;;;4967699;28;20116;-65
2023/05/30 04:55:03;;;;;;;7.88;4.95;;;16.00;99.90;;;;;;4963352;28;20113;-65
2023/05/30 04:57:29;;;;;;;8.05;4.97;;;16.10;99.90;;;;;;4961858;28;20121;-65
2023/05/30 04:59:55;;;;;;;6.47;4.90;;;16.20;99.90;;;;;;4951851;28;20592;-75
2023/05/30 05:02:21;;;;;;;13.82;5.40;;;16.40;99.90;;;;;;4966289;28;20077;-72
2023/05/30 05:04:47;;;;;;;7.90;5.20;;;16.50;99.90;;;;;;4973085;28;20283;-74
2023/05/30 05:07:13;;;;;;;6.57;5.07;;;16.60;99.90;;;;;;4955099;28;20095;-74
2023/05/30 05:09:38;;;;;;;7.72;5.00;;;16.60;99.90;;;;;;4955029;28;20050;-73
2023/05/30 05:12:04;;;;;;;36.55;6.78;;;16.70;99.90;;;;;;4977070;28;20034;-73
2023/05/30 05:14:30;;;;;;;6.63;5.30;;;16.80;99.90;;;;;;4977763;28;20073;-74
2023/05/30 05:16:57;;;;;;;7.75;5.68;;;16.90;99.90;;;;;;4976676;28;20087;-64
2023/05/30 05:19:22;;;;;;;7.20;5.60;;;17.00;99.90;;;;;;4970899;28;20042;-63
2023/05/30 05:21:48;;;;;;;6.85;4.85;;;17.10;99.90;;;;;;4977035;28;20506;-64
2023/05/30 05:24:14;;;;;;;11.35;5.18;;;17.30;99.90;;;;;;4972763;28;20054;-63
2023/05/30 05:26:39;;;;;;;5.72;4.80;;;17.50;99.90;;;;;;4969703;28;20818;-63
2023/05/30 05:29:05;;;;;;;6.60;5.40;;;17.60;99.90;;;;;;4975719;28;20034;-63
2023/05/30 05:31:33;;;;;;;8.07;5.47;;;17.70;99.90;;;;;;4971729;28;20038;-63
2023/05/30 05:33:58;;;;;;;18.10;5.78;;;17.90;99.90;;;;;;4973090;28;20141;-62
2023/05/30 05:36:24;;;;;;;11.25;6.20;;;18.10;99.90;;;;;;4972051;28;20143;-74
2023/05/30 05:38:50;;;;;;;7.70;5.20;;;18.20;99.90;;;;;;4979184;28;20031;-74
2023/05/30 05:41:16;;;;;;;6.32;4.90;;;18.40;99.90;;;;;;4977127;28;20120;-73
2023/05/30 05:43:41;;;;;;;5.53;4.90;;;18.50;99.90;;;;;;4973743;28;20093;-73
2023/05/30 05:46:07;;;;;;;7.00;4.82;;;18.70;99.90;;;;;;4980065;28;20806;-73
2023/05/30 05:48:33;;;;;;;8.55;5.50;;;18.70;99.90;;;;;;4979061;28;20656;-72
2023/05/30 05:50:58;;;;;;;5.45;4.88;;;18.70;99.90;;;;;;4982002;28;20026;-73
2023/05/30 05:53:24;;;;;;;6.30;4.95;;;18.70;99.90;;;;;;4971174;28;20601;-73
2023/05/30 05:55:50;;;;;;;6.10;4.80;;;18.70;99.90;;;;;;4977216;28;20034;-75
2023/05/30 05:58:15;;;;;;;6.55;4.70;;;18.80;99.90;;;;;;4976091;28;20133;-74
2023/05/30 06:00:41;;;;;;;5.32;4.68;;;18.80;99.90;;;;;;4973359;28;20455;-74
2023/05/30 06:03:07;;;;;;;6.50;4.68;;;18.90;99.90;;;;;;4978680;28;20070;-74
2023/05/30 06:05:32;;;;;;;6.13;4.47;;;18.90;99.90;;;;;;4983559;28;20034;-74
2023/05/30 06:07:58;;;;;;;6.25;5.07;;;19.00;99.90;;;;;;4974281;28;20039;-74
2023/05/30 06:10:27;;;;;;;5.65;4.20;;;19.10;99.90;;;;;;4973034;28;20038;-74
2023/05/30 06:12:53;;;;;;;6.68;4.43;;;19.20;99.90;;;;;;4979318;28;20064;-74
2023/05/30 06:15:19;;;;;;;4.75;4.25;;;19.30;99.90;;;;;;4979274;28;20052;-73
2023/05/30 06:17:45;;;;;;;12.68;4.97;;;19.30;99.90;;;;;;4976446;28;20499;-75
2023/05/30 06:20:11;;;;;;;6.22;4.85;;;19.40;99.90;;;;;;4990996;28;20072;-77
2023/05/30 06:22:37;;;;;;;6.28;4.30;;;19.40;99.90;;;;;;4975577;28;20042;-77
2023/05/30 06:25:04;;;;;;;6.47;4.40;;;19.40;99.90;;;;;;4980765;28;20069;-77
2023/05/30 06:27:29;;;;;;;5.53;4.40;;;19.50;99.90;;;;;;4976792;28;20401;-77
2023/05/30 06:29:55;;;;;;;6.47;4.20;;;19.40;99.90;;;;;;4974101;28;20046;-77
2023/05/30 06:32:21;;;;;;;4.95;3.70;;;19.50;99.90;;;;;;4973163;28;20509;-76
2023/05/30 06:34:46;;;;;;;8.60;3.92;;;19.60;99.90;;;;;;4975221;28;20614;-76
2023/05/30 06:37:15;;;;;;;5.97;4.10;;;19.60;99.90;;;;;;4972355;28;20133;-77
2023/05/30 06:39:41;;;;;;;6.07;4.32;;;19.70;99.90;;;;;;4977290;28;20593;-77
2023/05/30 06:42:09;;;;;;;5.82;4.78;;;19.80;99.90;;;;;;4977360;28;20092;-76
2023/05/30 06:44:35;;;;;;;6.93;4.78;;;20.00;99.90;;;;;;4975839;28;20158;-76
2023/05/30 06:47:01;;;;;;;5.25;4.43;;;20.10;99.90;;;;;;4974531;28;20778;-75
2023/05/30 06:49:26;;;;;;;6.60;4.47;;;20.30;99.90;;;;;;4975390;28;20046;-77
2023/05/30 06:51:52;;;;;;;7.72;4.57;;;20.40;99.90;;;;;;4978281;28;20031;-64
2023/05/30 06:54:17;;;;;;;5.40;4.07;;;20.40;99.90;;;;;;4977786;28;20170;-64
2023/05/30 06:56:43;;;;;;;6.10;4.30;;;20.50;99.90;;;;;;4972294;28;20041;-64
2023/05/30 06:59:09;;;;;;;6.32;4.28;;;20.70;99.90;;;;;;4976740;28;20156;-64
2023/05/30 07:01:34;;;;;;;7.68;4.68;;;20.80;99.90;;;;;;4963540;28;20039;-64
2023/05/30 07:04:00;;;;;;;5.90;3.92;;;21.00;99.90;;;;;;4976364;28;20054;-64
2023/05/30 07:06:26;;;;;;;7.00;4.05;;;21.10;99.90;;;;;;4954080;28;20419;-63
2023/05/30 07:08:51;;;;;;;4.15;3.75;;;21.10;99.90;;;;;;4974216;28;20874;-63
2023/05/30 07:11:17;;;;;;;6.28;4.22;;;21.20;99.90;;;;;;4978166;28;20151;-64
2023/05/30 07:13:43;;;;;;;4.78;4.20;;;21.30;99.90;;;;;;4979808;28;20526;-76
2023/05/30 07:16:08;;;;;;;5.78;4.22;;;21.30;99.90;;;;;;4975752;28;20659;-78
2023/05/30 07:18:34;;;;;;;5.10;3.95;;;21.40;99.90;;;;;;4972744;28;20065;-78
2023/05/30 07:21:00;;;;;;;5.90;4.13;;;21.40;99.90;;;;;;4974620;28;20092;-77
2023/05/30 07:23:26;;;;;;;5.18;4.13;;;21.40;99.90;;;;;;4974658;28;20112;-78
2023/05/30 07:25:51;;;;;;;6.40;4.20;;;21.30;99.90;;;;;;4975750;28;20038;-76
2023/05/30 07:28:20;;;;;;;9.40;4.78;;;21.30;99.90;;;;;;4969460;28;20046;-76
2023/05/30 07:30:46;;;;;;;6.80;4.43;;;21.30;99.90;;;;;;4972697;28;20046;-75
2023/05/30 07:33:11;;;;;;;5.57;4.20;;;21.20;99.90;;;;;;4966302;28;20093;-77
2023/05/30 07:35:37;;;;;;;6.03;4.13;;;21.30;99.90;;;;;;4971439;28;20146;-77
2023/05/30 07:38:02;;;;;;;6.68;3.95;;;21.30;99.90;;;;;;4973722;28;20026;-77
2023/05/30 07:40:28;;;;;;;5.38;4.25;;;21.40;99.90;;;;;;4971155;28;20042;-77
2023/05/30 07:42:54;;;;;;;6.47;4.40;;;21.50;99.90;;;;;;4974751;28;20546;-77
2023/05/30 07:45:20;;;;;;;6.90;4.25;;;21.50;99.90;;;;;;4968319;28;20092;-77
2023/05/30 07:47:46;;;;;;;7.57;4.55;;;21.60;99.90;;;;;;4971437;28;20584;-76
2023/05/30 07:50:11;;;;;;;6.43;4.18;;;21.70;99.90;;;;;;4968667;28;20039;-64
2023/05/30 07:52:37;;;;;;;4.82;4.20;;;21.80;99.90;;;;;;4972436;28;20487;-64
2023/05/30 07:55:03;;;;;;;6.15;4.25;;;21.70;99.90;;;;;;4975388;28;20444;-64
2023/05/30 07:57:28;;;;;;;8.20;4.45;;;21.80;99.90;;;;;;4979423;28;20515;-64
2023/05/30 07:59:55;;;;;;;7.38;4.10;;;21.90;99.90;;;;;;4968065;28;21072;-63
2023/05/30 08:02:24;;;;;;;5.72;4.13;;;22.10;99.90;;;;;;4963074;28;21516;-64
2023/05/30 08:04:49;;;;;;;4.47;4.07;;;22.00;99.90;;;;;;4963222;28;20096;-64
2023/05/30 08:07:15;;;;;;;5.57;3.95;;;21.90;99.90;;;;;;4968369;28;20451;-64
2023/05/30 08:09:41;;;;;;;5.35;3.95;;;22.00;99.90;;;;;;4968180;28;20072;-64
2023/05/30 08:12:07;;;;;;;6.07;4.30;;;22.20;99.90;;;;;;4971170;28;20500;-64
2023/05/30 08:14:33;;;;;;;5.10;3.53;;;22.20;99.90;;;;;;4977766;28;20132;-64
2023/05/30 08:16:59;;;;;;;5.15;4.40;;;22.30;99.90;;;;;;4974692;28;20039;-64
2023/05/30 08:19:25;;;;;;;5.93;3.92;;;22.30;99.90;;;;;;4974186;28;20051;-64
2023/05/30 08:21:51;;;;;;;6.22;4.95;;;22.40;99.90;;;;;;4975751;28;20052;-64
2023/05/30 08:24:17;;;;;;;6.35;4.22;;;22.50;99.90;;;;;;4978066;28;20125;-65
2023/05/30 08:26:44;;;;;;;5.13;3.97;;;22.70;99.90;;;;;;4974362;28;20035;-64
2023/05/30 08:29:10;;;;;;;5.93;4.25;;;22.60;99.90;;;;;;4967081;28;20043;-75
2023/05/30 08:31:35;;;;;;;13.05;4.50;;;22.80;99.90;;;;;;4979227;28;20648;-78
2023/05/30 08:34:02;;;;;;;6.88;4.97;;;22.80;99.90;;;;;;4974151;28;20039;-76
2023/05/30 08:36:28;;;;;;;4.80;4.28;;;22.90;99.90;;;;;;4969031;28;20054;-76
2023/05/30 08:38:55;;;;;;;4.85;3.85;;;23.00;99.90;;;;;;4954377;28;20038;-76
2023/05/30 08:41:22;;;;;;;6.22;4.18;;;23.10;99.90;;;;;;4954223;28;20043;-75
2023/05/30 08:43:47;;;;;;;5.22;3.90;;;23.10;99.90;;;;;;4980009;28;20050;-75
2023/05/30 08:46:14;;;;;;;6.80;4.15;;;23.10;99.90;;;;;;4979746;28;20027;-75
2023/05/30 08:48:41;;;;;;;5.88;4.00;;;23.10;99.90;;;;;;4976109;28;20158;-76
2023/05/30 08:51:11;;;;;;;7.43;4.20;;;23.20;99.90;;;;;;4974197;28;20035;-76
2023/05/30 08:53:42;;;;;;;5.05;4.07;;;23.20;99.90;;;;;;4964162;28;20113;-75
2023/05/30 08:56:11;;;;;;;4.82;4.38;;;23.20;99.90;;;;;;4972779;28;20077;-76
2023/05/30 08:58:42;;;;;;;4.43;3.92;;;23.10;99.90;;;;;;4974921;28;20027;-76
2023/05/30 09:01:10;;;;;;;5.38;4.55;;;23.10;99.90;;;;;;4972157;28;20030;-77
2023/05/30 09:03:38;;;;;;;8.57;4.38;;;23.10;99.90;;;;;;4976651;28;20042;-76
2023/05/30 09:06:07;;;;;;;7.40;4.05;;;23.10;99.90;;;;;;4974945;28;20113;-64
2023/05/30 09:08:33;;;;;;;7.32;4.50;;;23.10;99.90;;;;;;4975734;28;20034;-63
2023/05/30 09:10:59;;;;;;;4.38;3.65;;;22.90;99.90;;;;;;4970878;28;20109;-64
2023/05/30 09:13:25;;;;;;;5.50;4.03;;;22.90;99.90;;;;;;4974765;28;20401;-64
2023/05/30 09:15:51;;;;;;;9.90;4.00;;;22.90;99.90;;;;;;4974384;28;20026;-64
2023/05/30 09:18:17;;;;;;;5.38;4.47;;;22.90;99.90;;;;;;4975822;28;20037;-63
2023/05/30 09:20:43;;;;;;;6.45;4.50;;;22.90;99.90;;;;;;4973733;28;20041;-63
2023/05/30 09:23:09;;;;;;;5.70;3.85;;;23.00;99.90;;;;;;4974879;28;20049;-63
2023/05/30 09:25:49;;;;;;;6.30;4.20;;;23.00;99.90;;;;;;4973454;28;20451;-67
2023/05/30 09:28:26;;;;;;;8.50;4.55;;;23.10;99.90;;;;;;4962884;28;20069;-69
2023/05/30 09:30:55;;;;;;;7.00;4.55;;;23.00;99.90;;;;;;4969224;28;20212;-70
2023/05/30 09:33:21;;;;;;;9.43;4.25;;;23.00;99.90;;;;;;4971580;28;20092;-70
2023/05/30 09:35:57;;;;;;;4.43;3.80;;;23.00;99.90;;;;;;4971337;28;20463;-70
2023/05/30 09:38:24;;;;;;;8.48;4.07;;;23.10;99.90;;;;;;4962870;28;20082;-64
2023/05/30 09:41:12;;;;;;;7.00;4.15;;;23.20;99.90;;;;;;4964471;28;20037;-64
2023/05/30 09:43:38;;;;;;;5.70;3.75;;;23.40;99.90;;;;;;4977067;28;20042;-64
2023/05/30 09:46:05;;;;;;;6.70;4.60;;;23.50;99.90;;;;;;4960336;28;20116;-77
2023/05/30 09:48:32;;;;;;;4.97;4.07;;;23.60;99.90;;;;;;4976956;28;20383;-76
2023/05/30 09:51:00;;;;;;;7.78;4.40;;;23.60;99.90;;;;;;4974359;28;20647;-77
2023/05/30 09:53:33;;;;;;;5.03;4.40;;;23.40;99.90;;;;;;4976560;28;20194;-77
2023/05/30 09:56:01;;;;;;;4.65;4.15;;;23.40;99.90;;;;;;4975526;28;20684;-77
2023/05/30 09:58:26;;;;;;;5.57;4.32;;;23.40;99.90;;;;;;4979417;28;20144;-77
2023/05/30 10:00:55;;;;;;;6.30;3.90;;;23.40;99.90;;;;;;4975114;28;20041;-77
2023/05/30 10:03:39;;;;;;;6.20;3.85;;;23.50;99.90;;;;;;4959848;28;20077;-63
2023/05/30 10:06:15;;;;;;;6.57;3.97;;;23.50;99.90;;;;;;4974082;28;20178;-63
2023/05/30 10:08:48;;;;;;;4.60;3.80;;;23.50;99.90;;;;;;4972708;28;20343;-64
2023/05/30 10:11:14;;;;;;;4.70;4.18;;;23.50;99.90;;;;;;4972333;28;20436;-63
2023/05/30 10:13:40;;;;;;;5.10;3.60;;;23.60;99.90;;;;;;4980344;28;20721;-64
2023/05/30 10:16:13;;;;;;;7.20;4.50;;;23.50;99.90;;;;;;4977414;28;20034;-64
2023/05/30 10:18:47;;;;;;;5.25;3.17;;;23.50;99.90;;;;;;4970089;28;20074;-63
2023/05/30 10:21:14;;;;;;;5.57;3.67;;;23.40;99.90;;;;;;4975014;28;20442;-64
2023/05/30 10:23:41;;;;;;;6.00;4.18;;;23.30;99.90;;;;;;4974278;28;20054;-75
2023/05/30 10:26:10;;;;;;;7.85;3.45;;;23.30;99.90;;;;;;4972807;28;20046;-75
2023/05/30 10:28:37;;;;;;;5.35;3.50;;;23.40;99.90;;;;;;4975461;28;20121;-73
2023/05/30 10:31:04;;;;;;;5.45;3.83;;;23.60;99.90;;;;;;4967788;28;20041;-75
2023/05/30 10:33:36;;;;;;;8.90;3.75;;;23.50;99.90;;;;;;4974406;28;20061;-76
2023/05/30 10:36:02;;;;;;;6.95;4.57;;;23.40;99.30;;;;;;4970670;28;20068;-74
2023/05/30 10:38:31;;;;;;;7.00;3.95;;;23.30;99.90;;;;;;4975085;28;20425;-74
2023/05/30 10:41:00;;;;;;;7.30;4.40;;;23.30;99.90;;;;;;4978278;28;20121;-74
2023/05/30 10:43:32;;;;;;;6.53;4.13;;;23.40;99.90;;;;;;4956210;28;20523;-64
2023/05/30 10:46:31;;;;;;;8.00;4.85;;;23.40;99.90;;;;;;4977004;28;20608;-64
2023/05/30 10:49:07;;;;;;;6.35;3.95;;;23.40;99.90;;;;;;4966324;28;20054;-64
2023/05/30 10:52:05;;;;;;;6.00;4.28;;;23.40;99.90;;;;;;4971860;28;20117;-64
2023/05/30 10:54:33;;;;;;;8.30;4.22;;;23.40;99.90;;;;;;4972505;28;20034;-64
2023/05/30 10:57:20;;;;;;;6.32;4.28;;;23.30;99.90;;;;;;4965561;28;20057;-64
2023/05/30 10:59:46;;;;;;;4.68;3.85;;;23.30;99.90;;;;;;4962068;28;20130;-76
2023/05/30 11:02:20;;;;;;;6.68;4.50;;;23.30;99.90;;;;;;4977137;28;20553;-64
2023/05/30 11:04:49;;;;;;;5.50;4.32;;;23.30;99.90;;;;;;4965546;28;20070;-64
2023/05/30 11:07:16;;;;;;;6.15;4.32;;;23.30;99.90;;;;;;4957571;28;20704;-64
2023/05/30 11:10:02;;;;;;;6.22;4.40;;;23.20;99.90;;;;;;4971182;28;20045;-67
2023/05/30 11:12:29;;;;;;;8.90;4.57;;;23.20;99.90;;;;;;4975994;28;20042;-67
2023/05/30 11:14:56;;;;;;;5.35;4.22;;;23.20;99.90;;;;;;4974101;28;20121;-67
2023/05/30 11:17:33;;;;;;;6.05;4.65;;;23.30;99.90;;;;;;4959861;28;20038;-67
2023/05/30 11:20:07;;;;;;;7.45;4.65;;;23.30;99.90;;;;;;4969725;28;20054;-74
2023/05/30 11:22:33;;;;;;;4.72;3.45;;;23.40;99.90;;;;;;4963536;28;20044;-75
2023/05/30 11:25:25;;;;;;;7.30;4.18;;;23.40;99.90;;;;;;4974214;28;20046;-76
2023/05/30 11:30:48;;;;;;;8.18;4.13;;;23.80;99.90;;;;;;4974675;28;20048;-76
2023/05/30 11:33:16;;;;;;;6.15;4.13;;;24.10;99.90;;;;;;4970535;28;20137;-74
2023/05/30 11:35:48;;;;;;;6.03;3.55;;;24.30;99.90;;;;;;4971908;28;20125;-75
2023/05/30 11:38:18;;;;;;;7.30;4.10;;;24.30;99.90;;;;;;4975438;28;20043;-74
2023/05/30 11:40:44;;;;;;;7.78;4.38;;;24.40;99.90;;;;;;4972030;28;20486;-64
2023/05/30 11:43:13;;;;;;;5.22;4.22;;;24.40;98.90;;;;;;4965151;28;20053;-64
2023/05/30 11:45:39;;;;;;;4.93;4.07;;;24.20;97.90;;;;;;4970865;28;20180;-64
2023/05/30 11:48:08;;;;;;;4.13;3.65;;;24.00;98.60;;;;;;4971461;28;20019;-64
2023/05/30 11:50:41;;;;;;;6.25;4.25;;;24.10;99.50;;;;;;4973857;28;20395;-64
2023/05/30 11:53:15;;;;;;;8.68;4.40;;;24.20;99.60;;;;;;4954766;28;20117;-64
2023/05/30 11:55:48;;;;;;;5.88;3.78;;;24.20;98.60;;;;;;4964634;28;20061;-64
2023/05/30 11:58:15;;;;;;;5.05;3.92;;;24.20;99.20;;;;;;4980092;28;20049;-64
2023/05/30 12:00:42;;;;;;;4.60;3.88;;;24.30;98.60;;;;;;4968532;28;20034;-64
2023/05/30 12:03:16;;;;;;;4.68;4.10;;;24.20;97.40;;;;;;4961876;28;20040;-64
2023/05/30 12:05:46;;;;;;;6.63;4.20;;;24.00;97.20;;;;;;4960581;28;20039;-64
2023/05/30 12:08:18;;;;;;;5.03;4.00;;;23.90;96.90;;;;;;4964104;28;20073;-64
2023/05/30 12:10:44;;;;;;;4.97;3.80;;;23.80;97.20;;;;;;4952265;28;20046;-64
2023/05/30 12:13:10;;;;;;;4.03;3.65;;;23.80;97.10;;;;;;4962285;28;20097;-64
2023/05/30 12:15:36;;;;;;;9.02;4.05;;;23.80;98.00;;;;;;4961163;28;21801;-64
2023/05/30 12:18:02;;;;;;;5.65;3.97;;;23.90;97.80;;;;;;4958301;28;20442;-65
2023/05/30 12:20:28;;;;;;;6.93;4.00;;;23.90;97.80;;;;;;4963279;28;20537;-64
2023/05/30 12:22:54;;;;;;;5.88;3.67;;;23.90;98.50;;;;;;4957936;28;20101;-65
2023/05/30 12:25:26;;;;;;;6.55;3.90;;;24.00;99.10;;;;;;4947349;28;20268;-62
2023/05/30 12:27:54;;;;;;;6.85;4.22;;;23.90;99.30;;;;;;4958645;28;20073;-64
2023/05/30 12:30:20;;;;;;;6.47;4.13;;;23.80;99.60;;;;;;4964432;28;20171;-65
2023/05/30 12:32:46;;;;;;;6.18;4.03;;;23.70;99.90;;;;;;4963156;28;20030;-64
2023/05/30 12:35:14;;;;;;;4.63;4.13;;;23.40;99.90;;;;;;4970476;28;20749;-65
2023/05/30 12:37:39;;;;;;;6.80;4.50;;;23.20;99.90;;;;;;4973451;28;20610;-76
2023/05/30 12:40:07;;;;;;;8.82;4.28;;;23.10;99.90;;;;;;4977344;28;20133;-77
2023/05/30 12:42:36;;;;;;;12.23;4.50;;;22.90;99.90;;;;;;4974710;28;20031;-76
2023/05/30 12:45:03;;;;;;;18.63;5.43;;;22.70;99.90;;;;;;4977058;28;20042;-76
2023/05/30 12:47:29;;;;;;;13.63;5.47;;;22.60;99.90;;;;;;4974927;28;20487;-76
2023/05/30 12:49:56;;;;;;;10.07;4.38;;;22.30;99.90;;;;;;4974277;28;20034;-76
2023/05/30 12:52:26;;;;;;;5.68;4.63;;;22.10;99.90;;;;;;4953506;28;20038;-77